sensor_id;sensor_type;location;lat;lon;timestamp;pressure;altitude;pressure_sealevel;temperature;humidity
14293;BME280;62290;59.420;17.842;2023-05-02T00:02:27;100151.00;;;20.85;36.06
14293;BME280;62290;59.420;17.842;2023-05-02T00:04:57;100155.34;;;20.86;35.90
14293;BME280;62290;59.420;17.842;2023-05-02T00:07:25;100151.97;;;20.84;36.18
14293;BME280;62290;59.420;17.842;2023-05-02T00:09:53;100151.97;;;20.84;35.86
14293;BME280;62290;59.420;17.842;2023-05-02T00:12:21;100158.31;;;20.83;36.24
14293;BME280;62290;59.420;17.842;2023-05-02T00:14:49;100161.81;;;20.83;35.94
14293;BME280;62290;59.420;17.842;2023-05-02T00:17:18;100155.63;;;20.83;35.78
14293;BME280;62290;59.420;17.842;2023-05-02T00:19:47;100159.28;;;20.82;36.01
14293;BME280;62290;59.420;17.842;2023-05-02T00:22:16;100155.03;;;20.79;35.80
14293;BME280;62290;59.420;17.842;2023-05-02T00:24:44;100157.72;;;20.79;35.96
14293;BME280;62290;59.420;17.842;2023-05-02T00:27:12;100143.72;;;20.76;35.88
14293;BME280;62290;59.420;17.842;2023-05-02T00:29:40;100155.16;;;20.78;35.62
14293;BME280;62290;59.420;17.842;2023-05-02T00:32:08;100161.50;;;20.77;35.83
14293;BME280;62290;59.420;17.842;2023-05-02T00:34:37;100156.41;;;20.74;35.56
14293;BME280;62290;59.420;17.842;2023-05-02T00:37:05;100165.38;;;20.73;35.68
14293;BME280;62290;59.420;17.842;2023-05-02T00:39:35;100158.47;;;20.70;35.30
14293;BME280;62290;59.420;17.842;2023-05-02T00:42:03;100161.28;;;20.69;35.44
14293;BME280;62290;59.420;17.842;2023-05-02T00:44:31;100159.56;;;20.68;35.47
14293;BME280;62290;59.420;17.842;2023-05-02T00:47:00;100144.41;;;20.57;35.32
14293;BME280;62290;59.420;17.842;2023-05-02T00:49:28;100158.84;;;20.66;35.49
14293;BME280;62290;59.420;17.842;2023-05-02T00:51:57;100159.09;;;20.63;35.20
14293;BME280;62290;59.420;17.842;2023-05-02T00:54:25;100163.59;;;20.62;35.41
14293;BME280;62290;59.420;17.842;2023-05-02T00:56:55;100162.78;;;20.62;35.34
14293;BME280;62290;59.420;17.842;2023-05-02T00:59:24;100161.94;;;20.61;35.07
14293;BME280;62290;59.420;17.842;2023-05-02T01:02:01;100160.94;;;20.62;34.84
14293;BME280;62290;59.420;17.842;2023-05-02T01:04:41;100162.78;;;20.62;35.27
14293;BME280;62290;59.420;17.842;2023-05-02T01:07:21;100169.09;;;20.61;34.91
14293;BME280;62290;59.420;17.842;2023-05-02T01:10:01;100160.47;;;20.57;35.24
14293;BME280;62290;59.420;17.842;2023-05-02T01:12:40;100174.59;;;20.59;34.80
14293;BME280;62290;59.420;17.842;2023-05-02T01:15:11;100177.38;;;20.58;35.03
14293;BME280;62290;59.420;17.842;2023-05-02T01:17:43;100166.34;;;20.51;34.70
14293;BME280;62290;59.420;17.842;2023-05-02T01:20:19;100172.16;;;20.56;34.69
14293;BME280;62290;59.420;17.842;2023-05-02T01:22:48;100174.97;;;20.55;34.63
14293;BME280;62290;59.420;17.842;2023-05-02T01:25:25;100178.50;;;20.55;34.59
14293;BME280;62290;59.420;17.842;2023-05-02T01:28:09;100175.34;;;20.50;34.67
14293;BME280;62290;59.420;17.842;2023-05-02T01:30:44;100175.34;;;20.50;34.54
14293;BME280;62290;59.420;17.842;2023-05-02T01:33:14;100182.50;;;20.50;34.89
14293;BME280;62290;59.420;17.842;2023-05-02T01:35:45;100187.00;;;20.49;34.68
14293;BME280;62290;59.420;17.842;2023-05-02T01:38:18;100187.16;;;20.48;34.24
14293;BME280;62290;59.420;17.842;2023-05-02T01:40:49;100191.66;;;20.47;34.52
14293;BME280;62290;59.420;17.842;2023-05-02T01:43:19;100190.94;;;20.45;34.17
14293;BME280;62290;59.420;17.842;2023-05-02T01:45:51;100189.13;;;20.46;34.29
14293;BME280;62290;59.420;17.842;2023-05-02T01:48:20;100177.81;;;20.42;34.18
14293;BME280;62290;59.420;17.842;2023-05-02T01:50:50;100187.66;;;20.42;34.18
14293;BME280;62290;59.420;17.842;2023-05-02T01:53:19;100182.44;;;20.40;34.36
14293;BME280;62290;59.420;17.842;2023-05-02T01:55:48;100190.31;;;20.42;34.33
14293;BME280;62290;59.420;17.842;2023-05-02T01:58:18;100188.66;;;20.41;34.48
14293;BME280;62290;59.420;17.842;2023-05-02T02:00:50;100202.03;;;20.41;34.32
14293;BME280;62290;59.420;17.842;2023-05-02T02:03:20;100205.66;;;20.40;34.01
14293;BME280;62290;59.420;17.842;2023-05-02T02:05:53;100192.78;;;20.33;34.10
14293;BME280;62290;59.420;17.842;2023-05-02T02:08:22;100209.34;;;20.39;33.96
14293;BME280;62290;59.420;17.842;2023-05-02T02:10:55;100219.91;;;20.40;33.91
14293;BME280;62290;59.420;17.842;2023-05-02T02:13:26;100213.69;;;20.40;33.82
14293;BME280;62290;59.420;17.842;2023-05-02T02:15:59;100214.06;;;20.35;34.06
14293;BME280;62290;59.420;17.842;2023-05-02T02:18:31;100211.25;;;20.37;33.75
14293;BME280;62290;59.420;17.842;2023-05-02T02:21:03;100213.94;;;20.37;33.63
14293;BME280;62290;59.420;17.842;2023-05-02T02:23:33;100217.59;;;20.36;33.64
14293;BME280;62290;59.420;17.842;2023-05-02T02:26:04;100188.31;;;20.12;33.67
14293;BME280;62290;59.420;17.842;2023-05-02T02:28:33;100223.22;;;20.33;33.66
14293;BME280;62290;59.420;17.842;2023-05-02T02:31:03;100220.53;;;20.33;33.77
14293;BME280;62290;59.420;17.842;2023-05-02T02:33:31;100220.63;;;20.31;33.49
14293;BME280;62290;59.420;17.842;2023-05-02T02:36:07;100209.19;;;20.18;33.60
14293;BME280;62290;59.420;17.842;2023-05-02T02:38:43;100231.47;;;20.29;33.69
14293;BME280;62290;59.420;17.842;2023-05-02T02:41:17;100235.13;;;20.28;33.68
14293;BME280;62290;59.420;17.842;2023-05-02T02:43:58;100238.78;;;20.27;33.48
14293;BME280;62290;59.420;17.842;2023-05-02T02:46:36;100237.06;;;20.26;33.38
14293;BME280;62290;59.420;17.842;2023-05-02T02:49:17;100241.69;;;20.24;33.60
14293;BME280;62290;59.420;17.842;2023-05-02T02:51:52;100218.81;;;20.09;33.56
14293;BME280;62290;59.420;17.842;2023-05-02T02:54:27;100244.59;;;20.21;33.61
14293;BME280;62290;59.420;17.842;2023-05-02T02:57:01;100240.94;;;20.22;33.45
14293;BME280;62290;59.420;17.842;2023-05-02T02:59:33;100251.66;;;20.22;33.63
14293;BME280;62290;59.420;17.842;2023-05-02T03:02:05;100252.50;;;20.23;33.53
14293;BME280;62290;59.420;17.842;2023-05-02T03:04:37;100257.00;;;20.22;33.63
14293;BME280;62290;59.420;17.842;2023-05-02T03:07:05;100255.19;;;20.23;33.41
14293;BME280;62290;59.420;17.842;2023-05-02T03:09:40;100259.56;;;20.24;33.53
14293;BME280;62290;59.420;17.842;2023-05-02T03:12:11;100256.16;;;20.22;33.42
14293;BME280;62290;59.420;17.842;2023-05-02T03:14:41;100259.69;;;20.22;33.58
14293;BME280;62290;59.420;17.842;2023-05-02T03:17:11;100267.72;;;20.22;33.26
14293;BME280;62290;59.420;17.842;2023-05-02T03:19:40;100263.56;;;20.18;33.19
14293;BME280;62290;59.420;17.842;2023-05-02T03:22:08;100275.13;;;20.19;33.22
14293;BME280;62290;59.420;17.842;2023-05-02T03:24:36;100289.34;;;20.19;33.26
14293;BME280;62290;59.420;17.842;2023-05-02T03:27:04;100282.28;;;20.18;33.19
14293;BME280;62290;59.420;17.842;2023-05-02T03:29:38;100266.50;;;20.04;33.24
14293;BME280;62290;59.420;17.842;2023-05-02T03:32:08;100286.91;;;20.16;32.94
14293;BME280;62290;59.420;17.842;2023-05-02T03:34:40;100294.94;;;20.16;33.17
14293;BME280;62290;59.420;17.842;2023-05-02T03:37:09;100286.19;;;20.14;33.32
14293;BME280;62290;59.420;17.842;2023-05-02T03:39:37;100291.53;;;20.14;32.92
14293;BME280;62290;59.420;17.842;2023-05-02T03:42:05;100285.47;;;20.12;33.01
14293;BME280;62290;59.420;17.842;2023-05-02T03:44:34;100293.50;;;20.12;32.88
14293;BME280;62290;59.420;17.842;2023-05-02T03:47:02;100276.56;;;20.01;33.15
14293;BME280;62290;59.420;17.842;2023-05-02T03:49:36;100298.09;;;20.10;33.13
14293;BME280;62290;59.420;17.842;2023-05-02T03:52:06;100302.63;;;20.10;33.05
14293;BME280;62290;59.420;17.842;2023-05-02T03:54:35;100307.09;;;20.09;32.84
14293;BME280;62290;59.420;17.842;2023-05-02T03:57:03;100317.81;;;20.09;33.05
14293;BME280;62290;59.420;17.842;2023-05-02T03:59:32;100307.72;;;20.02;33.22
14293;BME280;62290;59.420;17.842;2023-05-02T04:02:08;100326.69;;;20.10;32.97
14293;BME280;62290;59.420;17.842;2023-05-02T04:04:44;100330.19;;;20.10;32.72
14293;BME280;62290;59.420;17.842;2023-05-02T04:07:17;100295.28;;;19.90;32.74
14293;BME280;62290;59.420;17.842;2023-05-02T04:09:52;100330.47;;;20.07;32.64
14293;BME280;62290;59.420;17.842;2023-05-02T04:12:21;100336.53;;;20.09;33.00
14293;BME280;62290;59.420;17.842;2023-05-02T04:14:51;100336.53;;;20.09;32.73
14293;BME280;62290;59.420;17.842;2023-05-02T04:17:22;100343.56;;;20.10;32.65
14293;BME280;62290;59.420;17.842;2023-05-02T04:19:52;100349.06;;;20.09;32.81
14293;BME280;62290;59.420;17.842;2023-05-02T04:22:24;100353.44;;;20.10;32.50
14293;BME280;62290;59.420;17.842;2023-05-02T04:25:00;100348.31;;;20.07;32.57
14293;BME280;62290;59.420;17.842;2023-05-02T04:27:30;100361.56;;;20.08;32.73
14293;BME280;62290;59.420;17.842;2023-05-02T04:29:58;100358.16;;;20.06;32.71
14293;BME280;62290;59.420;17.842;2023-05-02T04:32:27;100355.63;;;20.05;32.72
14293;BME280;62290;59.420;17.842;2023-05-02T04:34:57;100359.25;;;20.04;32.65
14293;BME280;62290;59.420;17.842;2023-05-02T04:37:26;100360.22;;;20.03;32.49
14293;BME280;62290;59.420;17.842;2023-05-02T04:39:55;100370.06;;;20.02;32.53
14293;BME280;62290;59.420;17.842;2023-05-02T04:42:26;100373.72;;;20.01;32.78
14293;BME280;62290;59.420;17.842;2023-05-02T04:45:05;100367.50;;;20.01;32.75
14293;BME280;62290;59.420;17.842;2023-05-02T04:47:34;100372.75;;;20.02;32.70
14293;BME280;62290;59.420;17.842;2023-05-02T04:50:02;100367.28;;;20.04;32.43
14293;BME280;62290;59.420;17.842;2023-05-02T04:52:32;100384.06;;;20.06;32.70
14293;BME280;62290;59.420;17.842;2023-05-02T04:55:00;100382.38;;;20.05;32.65
14293;BME280;62290;59.420;17.842;2023-05-02T04:57:28;100390.28;;;20.06;32.49
14293;BME280;62290;59.420;17.842;2023-05-02T04:59:58;100384.91;;;20.06;32.53
14293;BME280;62290;59.420;17.842;2023-05-02T05:02:27;100391.84;;;20.09;32.35
14293;BME280;62290;59.420;17.842;2023-05-02T05:04:56;100391.00;;;20.08;32.50
14293;BME280;62290;59.420;17.842;2023-05-02T05:07:24;100390.03;;;20.09;32.50
14293;BME280;62290;59.420;17.842;2023-05-02T05:09:55;100392.72;;;20.09;32.33
14293;BME280;62290;59.420;17.842;2023-05-02T05:12:26;100394.53;;;20.09;32.35
14293;BME280;62290;59.420;17.842;2023-05-02T05:14:54;100401.59;;;20.10;32.71
14293;BME280;62290;59.420;17.842;2023-05-02T05:17:25;100400.75;;;20.09;32.66
14293;BME280;62290;59.420;17.842;2023-05-02T05:19:53;100413.13;;;20.10;32.61
14293;BME280;62290;59.420;17.842;2023-05-02T05:22:21;100374.41;;;19.92;32.35
14293;BME280;62290;59.420;17.842;2023-05-02T05:24:50;100410.34;;;20.12;32.56
14293;BME280;62290;59.420;17.842;2023-05-02T05:27:22;100414.72;;;20.13;32.38
14293;BME280;62290;59.420;17.842;2023-05-02T05:29:50;100419.22;;;20.12;32.37
14293;BME280;62290;59.420;17.842;2023-05-02T05:32:18;100411.22;;;20.12;32.61
14293;BME280;62290;59.420;17.842;2023-05-02T05:34:50;100402.19;;;20.13;32.40
14293;BME280;62290;59.420;17.842;2023-05-02T05:37:20;100403.91;;;20.14;32.61
14293;BME280;62290;59.420;17.842;2023-05-02T05:39:48;100405.34;;;20.18;32.57
14293;BME280;62290;59.420;17.842;2023-05-02T05:42:16;100405.88;;;20.23;32.76
14293;BME280;62290;59.420;17.842;2023-05-02T05:44:49;100400.19;;;20.28;32.63
14293;BME280;62290;59.420;17.842;2023-05-02T05:47:20;100409.53;;;20.33;32.44
14293;BME280;62290;59.420;17.842;2023-05-02T05:49:52;100420.88;;;20.37;32.75
14293;BME280;62290;59.420;17.842;2023-05-02T05:52:21;100424.28;;;20.39;32.74
14293;BME280;62290;59.420;17.842;2023-05-02T05:54:53;100392.50;;;20.23;32.51
14293;BME280;62290;59.420;17.842;2023-05-02T05:57:23;100436.31;;;20.45;32.40
14293;BME280;62290;59.420;17.842;2023-05-02T05:59:54;100433.56;;;20.46;32.70
14293;BME280;62290;59.420;17.842;2023-05-02T06:02:22;100416.75;;;20.33;32.64
14293;BME280;62290;59.420;17.842;2023-05-02T06:04:50;100441.31;;;20.49;32.61
14293;BME280;62290;59.420;17.842;2023-05-02T06:07:21;100440.50;;;20.49;32.43
14293;BME280;62290;59.420;17.842;2023-05-02T06:09:49;100450.97;;;20.52;32.38
14293;BME280;62290;59.420;17.842;2023-05-02T06:12:17;100449.34;;;20.49;32.33
14293;BME280;62290;59.420;17.842;2023-05-02T06:14:46;100459.72;;;20.54;32.83
14293;BME280;62290;59.420;17.842;2023-05-02T06:17:15;100461.31;;;20.56;32.40
14293;BME280;62290;59.420;17.842;2023-05-02T06:19:43;100456.81;;;20.57;32.63
14293;BME280;62290;59.420;17.842;2023-05-02T06:22:11;100434.16;;;20.39;32.55
14293;BME280;62290;59.420;17.842;2023-05-02T06:24:39;100468.97;;;20.61;32.46
14293;BME280;62290;59.420;17.842;2023-05-02T06:27:07;100470.53;;;20.63;32.86
14293;BME280;62290;59.420;17.842;2023-05-02T06:29:35;100475.66;;;20.66;32.88
14293;BME280;62290;59.420;17.842;2023-05-02T06:32:04;100479.06;;;20.68;33.33
14293;BME280;62290;59.420;17.842;2023-05-02T06:34:33;100479.44;;;20.75;33.58
14293;BME280;62290;59.420;17.842;2023-05-02T06:37:01;100484.81;;;20.75;33.96
14293;BME280;62290;59.420;17.842;2023-05-02T06:39:29;100486.88;;;20.82;34.71
14293;BME280;62290;59.420;17.842;2023-05-02T06:41:57;100491.13;;;20.85;34.85
14293;BME280;62290;59.420;17.842;2023-05-02T06:44:27;100495.50;;;20.86;35.04
14293;BME280;62290;59.420;17.842;2023-05-02T06:46:55;100452.41;;;20.56;34.80
14293;BME280;62290;59.420;17.842;2023-05-02T06:49:23;100499.91;;;20.87;35.12
14293;BME280;62290;59.420;17.842;2023-05-02T06:51:52;100508.66;;;20.89;34.92
14293;BME280;62290;59.420;17.842;2023-05-02T06:54:20;100515.84;;;20.88;35.13
14293;BME280;62290;59.420;17.842;2023-05-02T06:56:48;100515.72;;;20.90;35.25
14293;BME280;62290;59.420;17.842;2023-05-02T06:59:17;100525.47;;;20.91;35.18
14293;BME280;62290;59.420;17.842;2023-05-02T07:01:45;100538.75;;;20.92;34.80
14293;BME280;62290;59.420;17.842;2023-05-02T07:04:13;100535.06;;;20.93;35.02
14293;BME280;62290;59.420;17.842;2023-05-02T07:06:41;100540.34;;;20.95;34.96
14293;BME280;62290;59.420;17.842;2023-05-02T07:09:10;100542.88;;;20.97;34.83
14293;BME280;62290;59.420;17.842;2023-05-02T07:11:39;100550.81;;;20.98;34.81
14293;BME280;62290;59.420;17.842;2023-05-02T07:14:07;100545.44;;;20.98;34.57
14293;BME280;62290;59.420;17.842;2023-05-02T07:16:34;100547.13;;;20.99;34.28
14293;BME280;62290;59.420;17.842;2023-05-02T07:19:03;100552.41;;;21.01;34.46
14293;BME280;62290;59.420;17.842;2023-05-02T07:21:32;100553.25;;;21.01;34.19
14293;BME280;62290;59.420;17.842;2023-05-02T07:24:00;100551.41;;;21.02;33.96
14293;BME280;62290;59.420;17.842;2023-05-02T07:26:30;100564.69;;;21.03;34.13
14293;BME280;62290;59.420;17.842;2023-05-02T07:28:58;100578.94;;;21.04;34.19
14293;BME280;62290;59.420;17.842;2023-05-02T07:31:26;100578.81;;;21.05;33.86
14293;BME280;62290;59.420;17.842;2023-05-02T07:33:54;100589.34;;;21.08;33.70
14293;BME280;62290;59.420;17.842;2023-05-02T07:36:22;100598.22;;;21.09;33.89
14293;BME280;62290;59.420;17.842;2023-05-02T07:38:50;100600.69;;;21.12;33.80
14293;BME280;62290;59.420;17.842;2023-05-02T07:41:18;100605.75;;;21.15;33.35
14293;BME280;62290;59.420;17.842;2023-05-02T07:43:48;100591.53;;;21.14;33.53
14293;BME280;62290;59.420;17.842;2023-05-02T07:46:16;100612.88;;;21.27;33.54
14293;BME280;62290;59.420;17.842;2023-05-02T07:48:44;100629.53;;;21.30;33.38
14293;BME280;62290;59.420;17.842;2023-05-02T07:51:12;100621.25;;;21.33;32.99
14293;BME280;62290;59.420;17.842;2023-05-02T07:53:40;100640.50;;;21.38;32.88
14293;BME280;62290;59.420;17.842;2023-05-02T07:56:08;100635.88;;;21.40;32.82
14293;BME280;62290;59.420;17.842;2023-05-02T07:58:36;100640.28;;;21.41;32.71
14293;BME280;62290;59.420;17.842;2023-05-02T08:01:05;100650.75;;;21.44;32.46
14293;BME280;62290;59.420;17.842;2023-05-02T08:03:33;100651.63;;;21.45;32.49
14293;BME280;62290;59.420;17.842;2023-05-02T08:06:02;100651.72;;;21.43;32.53
14293;BME280;62290;59.420;17.842;2023-05-02T08:08:30;100657.56;;;21.48;32.29
14293;BME280;62290;59.420;17.842;2023-05-02T08:10:58;100669.28;;;21.47;32.33
14293;BME280;62290;59.420;17.842;2023-05-02T08:13:26;100669.88;;;21.51;32.47
14293;BME280;62290;59.420;17.842;2023-05-02T08:15:55;100677.81;;;21.52;32.74
14293;BME280;62290;59.420;17.842;2023-05-02T08:18:26;100678.31;;;21.58;32.55
14293;BME280;62290;59.420;17.842;2023-05-02T08:20:54;100685.38;;;21.59;32.99
14293;BME280;62290;59.420;17.842;2023-05-02T08:23:24;100687.06;;;21.60;32.95
14293;BME280;62290;59.420;17.842;2023-05-02T08:25:52;100697.56;;;21.63;32.51
14293;BME280;62290;59.420;17.842;2023-05-02T08:28:21;100705.25;;;21.67;32.49
14293;BME280;62290;59.420;17.842;2023-05-02T08:30:49;100710.25;;;21.72;32.61
14293;BME280;62290;59.420;17.842;2023-05-02T08:33:17;100703.19;;;21.71;32.59
14293;BME280;62290;59.420;17.842;2023-05-02T08:35:47;100715.84;;;21.80;32.42
14293;BME280;62290;59.420;17.842;2023-05-02T08:38:15;100723.53;;;21.84;32.46
14293;BME280;62290;59.420;17.842;2023-05-02T08:40:44;100718.81;;;21.88;32.07
14293;BME280;62290;59.420;17.842;2023-05-02T08:43:15;100721.97;;;21.93;32.04
14293;BME280;62290;59.420;17.842;2023-05-02T08:45:44;100726.50;;;21.92;32.04
14293;BME280;62290;59.420;17.842;2023-05-02T08:48:12;100741.00;;;22.01;31.81
14293;BME280;62290;59.420;17.842;2023-05-02T08:50:43;100733.56;;;22.04;31.75
14293;BME280;62290;59.420;17.842;2023-05-02T08:53:16;100745.63;;;22.10;31.83
14293;BME280;62290;59.420;17.842;2023-05-02T08:55:45;100756.97;;;22.13;31.93
14293;BME280;62290;59.420;17.842;2023-05-02T08:58:13;100747.81;;;22.16;31.93
14293;BME280;62290;59.420;17.842;2023-05-02T09:00:44;100673.69;;;21.71;31.72
14293;BME280;62290;59.420;17.842;2023-05-02T09:03:20;100746.59;;;22.20;31.53
14293;BME280;62290;59.420;17.842;2023-05-02T09:05:52;100764.16;;;22.24;31.41
14293;BME280;62290;59.420;17.842;2023-05-02T09:08:23;100761.22;;;22.27;31.32
14293;BME280;62290;59.420;17.842;2023-05-02T09:10:51;100767.31;;;22.29;31.24
14293;BME280;62290;59.420;17.842;2023-05-02T09:13:30;100796.50;;;22.34;31.17
14293;BME280;62290;59.420;17.842;2023-05-02T09:15:59;100769.03;;;22.30;31.36
14293;BME280;62290;59.420;17.842;2023-05-02T09:18:29;100773.06;;;22.36;31.19
14293;BME280;62290;59.420;17.842;2023-05-02T09:20:58;100781.13;;;22.36;31.12
14293;BME280;62290;59.420;17.842;2023-05-02T09:23:35;100775.88;;;22.34;30.80
14293;BME280;62290;59.420;17.842;2023-05-02T09:26:15;100783.66;;;22.37;30.69
14293;BME280;62290;59.420;17.842;2023-05-02T09:28:44;100727.56;;;22.01;30.88
14293;BME280;62290;59.420;17.842;2023-05-02T09:31:14;100787.34;;;22.36;30.73
14293;BME280;62290;59.420;17.842;2023-05-02T09:34:07;100752.84;;;22.21;30.71
14293;BME280;62290;59.420;17.842;2023-05-02T09:36:38;100791.38;;;22.42;30.50
14293;BME280;62290;59.420;17.842;2023-05-02T09:39:10;100803.94;;;22.41;30.49
14293;BME280;62290;59.420;17.842;2023-05-02T09:41:39;100800.25;;;22.42;30.70
14293;BME280;62290;59.420;17.842;2023-05-02T09:44:09;100809.16;;;22.43;30.45
14293;BME280;62290;59.420;17.842;2023-05-02T09:46:41;100810.91;;;22.44;30.39
14293;BME280;62290;59.420;17.842;2023-05-02T09:49:09;100799.19;;;22.34;30.46
14293;BME280;62290;59.420;17.842;2023-05-02T09:51:37;100805.03;;;22.39;30.47
14293;BME280;62290;59.420;17.842;2023-05-02T09:54:05;100815.41;;;22.43;30.40
14293;BME280;62290;59.420;17.842;2023-05-02T09:56:50;100817.13;;;22.44;30.18
14293;BME280;62290;59.420;17.842;2023-05-02T09:59:18;100819.06;;;22.42;30.47
14293;BME280;62290;59.420;17.842;2023-05-02T10:01:54;100815.53;;;22.42;30.47
14293;BME280;62290;59.420;17.842;2023-05-02T10:04:22;100818.22;;;22.42;30.46
14293;BME280;62290;59.420;17.842;2023-05-02T10:06:52;100813.69;;;22.42;30.28
14293;BME280;62290;59.420;17.842;2023-05-02T10:09:21;100823.47;;;22.43;30.26
14293;BME280;62290;59.420;17.842;2023-05-02T10:11:52;100826.00;;;22.45;30.47
14293;BME280;62290;59.420;17.842;2023-05-02T10:14:22;100826.88;;;22.45;30.28
14293;BME280;62290;59.420;17.842;2023-05-02T10:16:59;100825.41;;;22.41;30.35
14293;BME280;62290;59.420;17.842;2023-05-02T10:19:29;100833.22;;;22.44;30.09
14293;BME280;62290;59.420;17.842;2023-05-02T10:22:00;100829.78;;;22.42;30.42
14293;BME280;62290;59.420;17.842;2023-05-02T10:24:31;100830.31;;;22.47;30.19
14293;BME280;62290;59.420;17.842;2023-05-02T10:27:03;100823.22;;;22.46;30.08
14293;BME280;62290;59.420;17.842;2023-05-02T10:29:31;100838.09;;;22.50;30.21
14293;BME280;62290;59.420;17.842;2023-05-02T10:32:02;100835.16;;;22.53;30.39
14293;BME280;62290;59.420;17.842;2023-05-02T10:34:32;100839.66;;;22.53;30.54
14293;BME280;62290;59.420;17.842;2023-05-02T10:37:00;100847.09;;;22.60;30.43
14293;BME280;62290;59.420;17.842;2023-05-02T10:39:28;100845.28;;;22.61;30.16
14293;BME280;62290;59.420;17.842;2023-05-02T10:41:58;100858.50;;;22.64;30.36
14293;BME280;62290;59.420;17.842;2023-05-02T10:44:34;100885.13;;;22.67;30.39
14293;BME280;62290;59.420;17.842;2023-05-02T10:47:18;100878.88;;;22.66;30.29
14293;BME280;62290;59.420;17.842;2023-05-02T10:49:51;100860.22;;;22.65;30.37
14293;BME280;62290;59.420;17.842;2023-05-02T10:52:28;100869.63;;;22.70;30.20
14293;BME280;62290;59.420;17.842;2023-05-02T10:55:13;100895.72;;;22.68;30.27
14293;BME280;62290;59.420;17.842;2023-05-02T10:58:19;100903.69;;;22.70;29.93
14293;BME280;62290;59.420;17.842;2023-05-02T11:00:49;100899.41;;;22.67;29.81
14293;BME280;62290;59.420;17.842;2023-05-02T11:03:54;100896.13;;;22.64;29.50
14293;BME280;62290;59.420;17.842;2023-05-02T11:06:25;100901.69;;;22.61;29.33
14293;BME280;62290;59.420;17.842;2023-05-02T11:09:31;100904.50;;;22.59;29.57
14293;BME280;62290;59.420;17.842;2023-05-02T11:12:03;100899.38;;;22.56;29.42
14293;BME280;62290;59.420;17.842;2023-05-02T11:14:49;100907.44;;;22.56;28.97
14293;BME280;62290;59.420;17.842;2023-05-02T11:17:18;100902.19;;;22.55;28.86
14293;BME280;62290;59.420;17.842;2023-05-02T11:20:17;100895.97;;;22.54;28.68
14293;BME280;62290;59.420;17.842;2023-05-02T11:22:45;100905.13;;;22.52;28.64
14293;BME280;62290;59.420;17.842;2023-05-02T11:25:31;100913.19;;;22.52;28.43
14293;BME280;62290;59.420;17.842;2023-05-02T11:28:00;100920.53;;;22.50;28.29
14293;BME280;62290;59.420;17.842;2023-05-02T11:30:40;100915.97;;;22.50;27.69
14293;BME280;62290;59.420;17.842;2023-05-02T11:33:17;100908.06;;;22.49;27.45
14293;BME280;62290;59.420;17.842;2023-05-02T11:35:47;100916.25;;;22.47;27.60
14293;BME280;62290;59.420;17.842;2023-05-02T11:38:17;100921.47;;;22.49;27.38
14293;BME280;62290;59.420;17.842;2023-05-02T11:40:57;100932.38;;;22.47;26.84
14293;BME280;62290;59.420;17.842;2023-05-02T11:43:27;100925.28;;;22.46;26.45
14293;BME280;62290;59.420;17.842;2023-05-02T11:45:58;100930.75;;;22.45;26.24
14293;BME280;62290;59.420;17.842;2023-05-02T11:48:29;100936.88;;;22.47;26.20
14293;BME280;62290;59.420;17.842;2023-05-02T11:50:58;100939.56;;;22.47;26.14
14293;BME280;62290;59.420;17.842;2023-05-02T11:53:31;100938.69;;;22.46;25.88
14293;BME280;62290;59.420;17.842;2023-05-02T11:56:01;100947.47;;;22.48;25.80
14293;BME280;62290;59.420;17.842;2023-05-02T11:58:30;100944.78;;;22.48;25.40
14293;BME280;62290;59.420;17.842;2023-05-02T12:01:10;100948.22;;;22.50;24.92
14293;BME280;62290;59.420;17.842;2023-05-02T12:03:40;100965.31;;;22.49;25.12
14293;BME280;62290;59.420;17.842;2023-05-02T12:06:10;100941.63;;;22.43;24.88
14293;BME280;62290;59.420;17.842;2023-05-02T12:08:41;100955.53;;;22.48;24.65
14293;BME280;62290;59.420;17.842;2023-05-02T12:11:12;100952.84;;;22.48;24.42
14293;BME280;62290;59.420;17.842;2023-05-02T12:13:43;100928.16;;;22.32;24.40
14293;BME280;62290;59.420;17.842;2023-05-02T12:16:13;100964.22;;;22.52;24.52
14293;BME280;62290;59.420;17.842;2023-05-02T12:18:43;100962.25;;;22.54;24.21
14293;BME280;62290;59.420;17.842;2023-05-02T12:21:11;100969.47;;;22.53;24.06
14293;BME280;62290;59.420;17.842;2023-05-02T12:23:40;100971.28;;;22.53;24.21
14293;BME280;62290;59.420;17.842;2023-05-02T12:26:19;100968.88;;;22.50;23.76
14293;BME280;62290;59.420;17.842;2023-05-02T12:28:49;100978.50;;;22.52;24.19
14293;BME280;62290;59.420;17.842;2023-05-02T12:31:17;100978.50;;;22.52;24.08
14293;BME280;62290;59.420;17.842;2023-05-02T12:33:47;100982.88;;;22.53;23.88
14293;BME280;62290;59.420;17.842;2023-05-02T12:36:18;100988.25;;;22.53;23.84
14293;BME280;62290;59.420;17.842;2023-05-02T12:38:49;100986.56;;;22.52;24.21
14293;BME280;62290;59.420;17.842;2023-05-02T12:41:30;101000.72;;;22.54;24.15
14293;BME280;62290;59.420;17.842;2023-05-02T12:43:58;100999.13;;;22.52;24.17
14293;BME280;62290;59.420;17.842;2023-05-02T12:46:26;101003.50;;;22.53;24.67
14293;BME280;62290;59.420;17.842;2023-05-02T12:49:03;100978.00;;;22.36;25.48
14293;BME280;62290;59.420;17.842;2023-05-02T12:51:32;101005.22;;;22.54;25.95
14293;BME280;62290;59.420;17.842;2023-05-02T12:54:00;101009.66;;;22.55;26.92
14293;BME280;62290;59.420;17.842;2023-05-02T12:56:29;101026.59;;;22.55;27.96
14293;BME280;62290;59.420;17.842;2023-05-02T12:58:58;101027.34;;;22.57;29.43
14293;BME280;62290;59.420;17.842;2023-05-02T13:01:31;101038.81;;;22.59;30.06